Time;durP1;ratioP1;P1;durP2;ratioP2;P2;SDS_P1;SDS_P2;PMS_P1;PMS_P2;Temp;Humidity;BMP_temperature;BMP_pressure;BME280_temperature;BME280_humidity;BME280_pressure;Samples;Min_cycle;Max_cycle;Signal;HPM_P1;HPM_P2
2023/06/09 00:01:48;;;;;;;7.25;2.38;;;26.90;44.30;;;;;;5067766;28;20473;-68
2023/06/09 00:04:15;;;;;;;3.78;2.38;;;26.90;44.30;;;;;;5055641;28;20036;-68
2023/06/09 00:06:43;;;;;;;3.88;2.55;;;26.90;44.40;;;;;;5070549;28;20491;-69
2023/06/09 00:09:10;;;;;;;3.42;2.50;;;26.90;44.40;;;;;;5066331;28;20032;-67
2023/06/09 00:11:36;;;;;;;2.70;2.35;;;26.90;44.40;;;;;;5067457;28;20086;-67
2023/06/09 00:14:03;;;;;;;4.47;2.20;;;26.90;44.40;;;;;;5065279;28;20408;-67
2023/06/09 00:16:29;;;;;;;4.35;2.97;;;26.90;44.50;;;;;;5042506;28;20028;-67
2023/06/09 00:19:01;;;;;;;4.13;3.00;;;26.80;44.70;;;;;;5053539;28;20040;-67
2023/06/09 00:21:27;;;;;;;4.28;2.67;;;26.90;44.70;;;;;;5069182;28;20052;-68
2023/06/09 00:23:55;;;;;;;4.60;2.70;;;26.70;44.80;;;;;;5071355;28;20046;-67
2023/06/09 00:26:21;;;;;;;9.45;2.80;;;26.80;44.90;;;;;;5071014;28;20041;-67
2023/06/09 00:28:48;;;;;;;3.10;2.28;;;26.60;45.00;;;;;;5056428;28;20055;-67
2023/06/09 00:31:14;;;;;;;4.18;2.45;;;26.60;45.10;;;;;;5063061;28;20043;-67
2023/06/09 00:33:40;;;;;;;2.15;2.00;;;26.60;45.20;;;;;;5067033;28;20028;-67
2023/06/09 00:36:07;;;;;;;6.80;3.05;;;26.60;45.20;;;;;;5071278;28;20127;-67
2023/06/09 00:38:34;;;;;;;6.25;2.45;;;26.60;45.20;;;;;;5055917;28;20029;-67
2023/06/09 00:41:01;;;;;;;2.92;2.53;;;26.60;45.30;;;;;;5052142;28;20034;-67
2023/06/09 00:43:27;;;;;;;4.30;2.40;;;26.70;45.30;;;;;;5059728;28;20479;-67
2023/06/09 00:45:55;;;;;;;8.95;3.00;;;26.60;45.30;;;;;;5035641;28;20041;-69
2023/06/09 00:48:21;;;;;;;3.38;2.35;;;26.60;45.40;;;;;;5053296;28;20539;-68
2023/06/09 00:50:47;;;;;;;6.07;2.70;;;26.70;45.40;;;;;;5065016;28;20044;-67
2023/06/09 00:53:15;;;;;;;3.33;2.53;;;26.60;45.40;;;;;;5071140;28;20128;-68
2023/06/09 00:55:41;;;;;;;5.18;2.63;;;26.60;45.40;;;;;;5063330;28;20500;-68
2023/06/09 00:58:09;;;;;;;5.18;2.15;;;26.60;45.50;;;;;;5044098;28;20049;-67
2023/06/09 01:00:35;;;;;;;8.18;2.95;;;26.60;45.50;;;;;;5037765;28;20033;-67
2023/06/09 01:03:02;;;;;;;5.32;3.05;;;26.60;45.60;;;;;;5069219;28;20024;-67
2023/06/09 01:05:32;;;;;;;3.42;2.58;;;26.60;45.60;;;;;;5057545;28;20064;-68
2023/06/09 01:08:22;;;;;;;5.15;2.72;;;26.70;45.70;;;;;;5055842;28;20037;-67
2023/06/09 01:11:00;;;;;;;5.57;2.75;;;26.60;45.70;;;;;;4988426;28;20785;-67
2023/06/09 01:13:46;;;;;;;4.15;3.08;;;26.50;45.80;;;;;;4976213;28;20046;-67
2023/06/09 01:16:44;;;;;;;3.20;2.28;;;26.50;45.90;;;;;;4981814;28;20038;-68
2023/06/09 01:19:36;;;;;;;3.33;2.25;;;26.40;46.10;;;;;;4929739;29;20397;-67
2023/06/09 01:22:11;;;;;;;4.00;2.40;;;26.40;46.10;;;;;;4930966;29;20051;-67
2023/06/09 01:24:59;;;;;;;2.70;2.35;;;26.40;46.10;;;;;;4919127;29;20622;-68
2023/06/09 01:27:29;;;;;;;4.93;3.45;;;26.60;46.10;;;;;;4934711;29;20424;-68
2023/06/09 01:29:58;;;;;;;2.90;2.65;;;26.40;46.00;;;;;;4913176;29;20385;-67
2023/06/09 01:32:26;;;;;;;6.88;2.42;;;26.60;46.00;;;;;;4926453;29;20051;-67
2023/06/09 01:34:53;;;;;;;5.78;3.05;;;26.60;46.00;;;;;;4928571;29;20448;-68
2023/06/09 01:37:20;;;;;;;5.45;2.67;;;26.50;46.00;;;;;;4901074;29;20051;-68
2023/06/09 01:39:46;;;;;;;5.32;2.45;;;26.40;46.10;;;;;;4931046;29;20126;-67
2023/06/09 01:42:12;;;;;;;8.80;2.80;;;26.50;46.10;;;;;;4952392;28;20050;-67
2023/06/09 01:44:39;;;;;;;5.90;2.50;;;26.50;46.10;;;;;;4941649;28;20126;-67
2023/06/09 01:47:06;;;;;;;5.32;2.38;;;26.40;46.20;;;;;;4931335;28;20142;-67
2023/06/09 01:50:06;;;;;;;4.03;2.50;;;26.40;46.30;;;;;;4987024;28;20131;-67
2023/06/09 01:52:53;;;;;;;4.93;2.88;;;26.30;46.40;;;;;;4930324;28;20464;-67
2023/06/09 01:55:24;;;;;;;6.25;3.40;;;26.30;46.40;;;;;;4961228;28;20046;-67
2023/06/09 01:57:56;;;;;;;6.20;2.78;;;26.20;46.50;;;;;;4988303;28;20054;-69
2023/06/09 02:00:26;;;;;;;3.22;2.78;;;26.20;46.60;;;;;;4983206;28;20120;-67
2023/06/09 02:02:59;;;;;;;5.45;2.67;;;26.30;46.70;;;;;;4972782;28;20152;-67
2023/06/09 02:05:28;;;;;;;3.05;2.55;;;26.10;46.80;;;;;;4969799;28;20557;-68
2023/06/09 02:07:55;;;;;;;9.25;3.08;;;26.20;46.80;;;;;;4974777;28;20052;-67
2023/06/09 02:10:24;;;;;;;8.48;2.78;;;26.20;46.70;;;;;;4964543;28;20442;-67
2023/06/09 02:12:50;;;;;;;5.32;2.70;;;26.10;46.80;;;;;;4975572;28;20034;-67
2023/06/09 02:15:18;;;;;;;6.97;2.60;;;26.20;46.70;;;;;;4967957;28;20040;-67
2023/06/09 02:17:45;;;;;;;4.18;2.58;;;26.10;46.80;;;;;;4973934;28;20152;-67
2023/06/09 02:20:12;;;;;;;11.13;2.63;;;26.20;46.70;;;;;;4986484;28;20046;-67
2023/06/09 02:22:38;;;;;;;5.65;3.10;;;26.20;46.70;;;;;;4975557;28;20058;-67
2023/06/09 02:25:06;;;;;;;6.22;3.17;;;26.20;46.80;;;;;;4961490;28;20040;-68
2023/06/09 02:27:32;;;;;;;3.55;2.60;;;26.30;46.80;;;;;;4933579;29;20111;-67
2023/06/09 02:29:59;;;;;;;3.40;2.38;;;26.20;46.80;;;;;;5031218;28;20057;-67
2023/06/09 02:32:25;;;;;;;5.65;2.40;;;26.30;46.80;;;;;;5049944;28;20186;-67
2023/06/09 02:34:52;;;;;;;3.45;2.70;;;26.30;46.90;;;;;;5063782;28;20500;-68
2023/06/09 02:37:18;;;;;;;4.18;2.75;;;26.10;46.90;;;;;;5033471;28;20037;-68
2023/06/09 02:39:44;;;;;;;5.18;2.80;;;26.10;46.90;;;;;;5040868;28;20040;-67
2023/06/09 02:42:11;;;;;;;6.95;3.22;;;26.00;47.00;;;;;;5049666;28;20559;-67
2023/06/09 02:44:37;;;;;;;3.72;2.90;;;26.00;47.00;;;;;;5062331;28;20052;-67
2023/06/09 02:47:06;;;;;;;4.13;2.78;;;26.10;47.00;;;;;;5050350;28;20094;-67
2023/06/09 02:49:32;;;;;;;3.45;2.70;;;26.00;47.10;;;;;;5047824;28;20070;-67
2023/06/09 02:51:59;;;;;;;4.50;2.90;;;26.10;47.20;;;;;;5063759;28;20374;-67
2023/06/09 02:54:28;;;;;;;3.90;2.35;;;26.00;47.30;;;;;;5049319;28;20587;-68
2023/06/09 02:56:56;;;;;;;5.28;3.03;;;26.00;47.30;;;;;;5053627;28;20028;-67
2023/06/09 02:59:22;;;;;;;4.55;2.78;;;26.00;47.20;;;;;;5041750;28;20044;-67
2023/06/09 03:01:49;;;;;;;5.85;2.75;;;25.90;46.70;;;;;;5049857;28;20565;-67
2023/06/09 03:04:17;;;;;;;7.28;3.63;;;26.00;47.20;;;;;;5058855;28;20104;-68
2023/06/09 03:06:48;;;;;;;4.57;2.75;;;26.20;47.20;;;;;;5066811;28;20502;-68
2023/06/09 03:09:15;;;;;;;7.15;3.17;;;26.20;47.20;;;;;;5068841;28;20086;-68
2023/06/09 03:11:45;;;;;;;6.30;2.83;;;26.00;47.20;;;;;;5068760;28;20162;-67
2023/06/09 03:14:13;;;;;;;3.38;2.47;;;26.00;47.20;;;;;;5052356;28;20555;-67
2023/06/09 03:16:39;;;;;;;6.75;3.20;;;26.00;47.20;;;;;;5070033;28;20028;-68
2023/06/09 03:19:07;;;;;;;3.35;2.55;;;26.10;47.20;;;;;;5063713;28;20487;-67
2023/06/09 03:21:35;;;;;;;5.72;3.30;;;26.00;47.10;;;;;;5068576;28;20357;-67
2023/06/09 03:24:04;;;;;;;3.95;2.60;;;26.10;47.20;;;;;;5073177;28;20063;-67
2023/06/09 03:26:30;;;;;;;6.35;2.83;;;26.20;47.20;;;;;;5072963;28;20036;-67
2023/06/09 03:28:56;;;;;;;3.10;2.60;;;26.00;47.20;;;;;;5047131;28;20044;-67
2023/06/09 03:31:23;;;;;;;5.00;2.97;;;26.00;47.30;;;;;;5063915;28;20104;-67
2023/06/09 03:33:49;;;;;;;4.72;2.90;;;26.10;47.30;;;;;;5070512;28;20044;-67
2023/06/09 03:36:16;;;;;;;3.13;2.83;;;26.00;47.30;;;;;;5067224;28;20496;-68
2023/06/09 03:38:42;;;;;;;6.78;3.00;;;25.90;46.90;;;;;;5070691;28;20036;-67
2023/06/09 03:41:08;;;;;;;8.70;3.85;;;25.90;46.90;;;;;;5047861;28;20045;-67
2023/06/09 03:43:34;;;;;;;3.92;2.55;;;26.00;47.40;;;;;;5043776;28;20033;-67
2023/06/09 03:46:00;;;;;;;4.78;3.03;;;25.90;47.10;;;;;;5045506;28;20037;-67
2023/06/09 03:48:29;;;;;;;8.93;3.05;;;25.80;47.00;;;;;;5052737;28;20052;-68
2023/06/09 03:50:55;;;;;;;6.65;2.92;;;26.00;47.30;;;;;;5050496;28;20041;-67
2023/06/09 03:53:23;;;;;;;6.38;3.00;;;26.00;47.30;;;;;;5050884;28;20128;-67
2023/06/09 03:55:49;;;;;;;5.10;2.95;;;26.10;47.30;;;;;;5047345;28;20191;-68
2023/06/09 03:58:15;;;;;;;4.03;2.22;;;26.00;47.30;;;;;;5065686;28;20033;-67
2023/06/09 04:00:43;;;;;;;3.53;2.60;;;26.00;47.30;;;;;;5057684;28;20111;-67
2023/06/09 04:03:09;;;;;;;4.05;2.38;;;26.10;47.20;;;;;;5043260;28;20059;-67
2023/06/09 04:05:35;;;;;;;8.90;2.40;;;26.00;47.10;;;;;;5050985;28;20120;-67
2023/06/09 04:08:01;;;;;;;4.00;2.60;;;26.20;47.00;;;;;;5050187;28;20059;-67
2023/06/09 04:10:28;;;;;;;6.20;2.80;;;26.20;46.90;;;;;;5050181;28;20492;-67
2023/06/09 04:12:54;;;;;;;5.10;2.47;;;26.10;46.90;;;;;;5050078;28;20485;-68
2023/06/09 04:15:20;;;;;;;7.95;2.85;;;26.10;46.90;;;;;;5050139;28;20032;-67
2023/06/09 04:17:50;;;;;;;7.00;3.40;;;26.10;47.00;;;;;;5049963;28;20028;-67
2023/06/09 04:20:22;;;;;;;6.28;3.08;;;26.10;47.00;;;;;;5050120;28;20508;-67
2023/06/09 04:22:49;;;;;;;3.63;2.92;;;26.00;47.10;;;;;;5050528;28;20053;-68
2023/06/09 04:25:25;;;;;;;6.22;2.58;;;26.10;47.20;;;;;;5049857;28;20032;-67
2023/06/09 04:27:53;;;;;;;4.75;2.58;;;26.10;47.30;;;;;;5049702;28;20049;-67
2023/06/09 04:30:25;;;;;;;9.40;3.03;;;26.00;47.30;;;;;;5060604;28;20127;-68
2023/06/09 04:32:55;;;;;;;6.43;2.22;;;26.00;47.30;;;;;;5060462;28;20106;-69
2023/06/09 04:35:22;;;;;;;6.95;2.72;;;26.00;47.30;;;;;;5059771;28;20043;-67
2023/06/09 04:37:50;;;;;;;5.70;3.08;;;26.00;47.40;;;;;;5047766;28;20041;-67
2023/06/09 04:40:23;;;;;;;4.35;2.72;;;26.00;47.50;;;;;;5058289;28;20055;-68
2023/06/09 04:42:52;;;;;;;4.82;2.85;;;26.00;47.50;;;;;;5079613;28;20419;-67
2023/06/09 04:45:20;;;;;;;10.10;3.50;;;26.00;47.50;;;;;;5059113;28;20094;-67
2023/06/09 04:47:48;;;;;;;7.97;3.40;;;26.10;47.50;;;;;;5066464;28;20040;-67
2023/06/09 04:50:16;;;;;;;7.75;3.60;;;26.00;47.40;;;;;;5067259;28;20068;-67
2023/06/09 04:52:47;;;;;;;13.45;3.25;;;26.10;47.50;;;;;;5041611;28;20044;-67
2023/06/09 04:55:13;;;;;;;9.15;4.30;;;26.10;47.40;;;;;;5041732;28;20043;-67
2023/06/09 04:57:40;;;;;;;5.80;3.30;;;26.10;47.40;;;;;;5049585;28;20037;-67
2023/06/09 05:00:16;;;;;;;10.07;3.90;;;26.00;47.40;;;;;;5051179;28;20051;-67
2023/06/09 05:02:44;;;;;;;5.90;2.95;;;26.20;47.40;;;;;;5054111;28;20045;-67
2023/06/09 05:05:12;;;;;;;5.40;3.60;;;26.10;47.30;;;;;;5053881;28;20049;-67
2023/06/09 05:07:41;;;;;;;8.30;4.20;;;26.20;47.30;;;;;;5068191;28;20114;-67
2023/06/09 05:10:08;;;;;;;9.90;3.88;;;26.20;47.30;;;;;;5034033;28;20049;-67
2023/06/09 05:12:39;;;;;;;8.40;3.70;;;26.10;47.30;;;;;;5060023;28;20495;-67
2023/06/09 05:15:06;;;;;;;9.30;3.78;;;26.10;47.30;;;;;;5043588;28;20045;-68
2023/06/09 05:17:36;;;;;;;4.88;3.67;;;26.20;47.30;;;;;;5047876;28;20089;-67
2023/06/09 05:20:07;;;;;;;5.47;3.67;;;26.00;47.30;;;;;;5071821;28;20086;-68
2023/06/09 05:22:35;;;;;;;9.07;3.17;;;26.10;47.20;;;;;;5073689;28;20044;-67
2023/06/09 05:25:08;;;;;;;5.35;3.88;;;26.10;47.20;;;;;;5034137;28;20045;-68
2023/06/09 05:27:34;;;;;;;6.28;2.88;;;26.20;47.20;;;;;;5054373;28;20869;-67
2023/06/09 05:30:01;;;;;;;7.45;3.28;;;26.00;47.20;;;;;;5067487;28;20391;-67
2023/06/09 05:32:28;;;;;;;5.95;3.10;;;26.00;47.20;;;;;;5066800;28;20105;-67
2023/06/09 05:34:54;;;;;;;4.90;2.75;;;26.20;47.20;;;;;;5056169;28;20111;-67
2023/06/09 05:37:21;;;;;;;5.93;2.92;;;26.10;47.20;;;;;;5057479;28;20485;-67
2023/06/09 05:39:47;;;;;;;4.40;2.88;;;26.10;47.30;;;;;;5055989;28;20032;-67
2023/06/09 05:42:13;;;;;;;3.40;2.70;;;26.10;47.30;;;;;;5051087;28;20117;-67
2023/06/09 05:44:40;;;;;;;8.60;2.88;;;26.20;47.30;;;;;;5048015;28;20029;-68
2023/06/09 05:47:06;;;;;;;6.20;3.35;;;26.20;47.20;;;;;;5053316;28;20037;-68
2023/06/09 05:49:33;;;;;;;10.07;3.80;;;26.10;47.20;;;;;;5052928;28;20048;-68
2023/06/09 05:51:59;;;;;;;1.10;0.95;;;26.20;48.90;;;;;;5053057;28;20100;-69
2023/06/09 05:54:26;;;;;;;1.27;1.17;;;26.30;48.40;;;;;;5054231;28;20032;-70
2023/06/09 05:56:53;;;;;;;2.83;2.03;;;26.30;47.90;;;;;;5054372;28;20040;-70
2023/06/09 05:59:20;;;;;;;4.50;1.35;;;26.30;47.20;;;;;;5054146;28;20040;-71
2023/06/09 06:01:47;;;;;;;5.43;2.33;;;26.30;46.70;;;;;;5054121;28;20037;-70
2023/06/09 06:04:13;;;;;;;2.13;1.17;;;26.30;46.10;;;;;;5062211;28;20036;-70
2023/06/09 06:06:39;;;;;;;2.08;1.63;;;26.40;46.40;;;;;;5057819;28;20037;-70
2023/06/09 06:09:05;;;;;;;3.38;1.98;;;26.40;46.60;;;;;;5052938;28;20041;-70
2023/06/09 06:11:31;;;;;;;2.28;2.08;;;26.40;46.90;;;;;;5051905;28;20029;-70
2023/06/09 06:13:57;;;;;;;3.40;1.65;;;26.60;47.70;;;;;;5053287;28;20032;-69
2023/06/09 06:16:23;;;;;;;3.97;1.95;;;26.50;47.20;;;;;;5053832;28;20029;-70
2023/06/09 06:18:49;;;;;;;3.97;2.80;;;26.60;45.80;;;;;;5054035;28;20044;-70
2023/06/09 06:21:17;;;;;;;3.53;2.85;;;26.50;46.30;;;;;;5053787;28;20041;-70
2023/06/09 06:23:43;;;;;;;6.05;3.47;;;26.60;46.60;;;;;;5065087;28;20035;-70
2023/06/09 06:26:09;;;;;;;7.70;3.95;;;26.60;45.20;;;;;;5070967;28;20036;-70
2023/06/09 06:28:35;;;;;;;11.10;3.78;;;26.50;47.20;;;;;;5051424;28;20044;-69
2023/06/09 06:31:02;;;;;;;10.13;3.03;;;26.60;45.30;;;;;;5052775;28;20032;-71
2023/06/09 06:33:30;;;;;;;6.72;3.13;;;26.50;44.10;;;;;;5053142;28;20044;-73
2023/06/09 06:35:57;;;;;;;9.02;3.08;;;26.60;44.80;;;;;;5053438;28;20025;-73
2023/06/09 06:38:23;;;;;;;5.07;3.13;;;26.70;44.50;;;;;;5057114;28;20032;-72
2023/06/09 06:40:50;;;;;;;4.57;3.30;;;26.60;43.90;;;;;;5053449;28;20061;-72
2023/06/09 06:43:16;;;;;;;8.85;3.38;;;26.50;44.50;;;;;;5053113;28;20032;-72
2023/06/09 06:45:55;;;;;;;6.25;3.42;;;26.50;44.20;;;;;;5051952;28;20048;-72
2023/06/09 06:48:21;;;;;;;5.63;3.95;;;26.50;44.10;;;;;;5053341;28;20116;-71
2023/06/09 06:50:47;;;;;;;6.30;3.58;;;26.40;43.20;;;;;;5053193;28;20108;-71
2023/06/09 06:53:13;;;;;;;7.25;3.40;;;26.50;43.40;;;;;;5051549;28;20094;-71
2023/06/09 06:55:39;;;;;;;4.72;3.70;;;26.70;42.80;;;;;;5056532;28;20090;-71
2023/06/09 06:58:05;;;;;;;4.80;3.05;;;26.60;43.10;;;;;;5073266;28;20488;-73
2023/06/09 07:00:31;;;;;;;6.10;3.45;;;26.70;43.10;;;;;;5060557;28;20063;-71
2023/06/09 07:02:57;;;;;;;4.90;3.28;;;26.70;43.30;;;;;;5054743;28;20128;-71
2023/06/09 07:05:25;;;;;;;6.90;3.70;;;26.60;43.10;;;;;;5063711;28;20082;-72
2023/06/09 07:07:51;;;;;;;5.22;3.30;;;26.80;42.80;;;;;;5064730;28;20048;-71
2023/06/09 07:10:17;;;;;;;3.90;2.95;;;26.70;42.80;;;;;;5038998;28;20087;-71
2023/06/09 07:12:43;;;;;;;5.38;3.42;;;26.70;42.40;;;;;;5049326;28;20033;-72
2023/06/09 07:15:10;;;;;;;5.03;3.20;;;26.80;42.40;;;;;;5039567;28;20044;-72
2023/06/09 07:17:36;;;;;;;5.35;3.10;;;26.80;42.60;;;;;;5066065;28;20063;-73
2023/06/09 07:20:02;;;;;;;3.90;3.22;;;26.80;42.60;;;;;;5069322;28;20088;-73
2023/06/09 07:22:28;;;;;;;5.28;3.00;;;26.80;42.70;;;;;;5060951;28;20021;-71
2023/06/09 07:24:54;;;;;;;4.65;3.35;;;26.80;42.20;;;;;;5066241;28;20031;-69
2023/06/09 07:27:20;;;;;;;6.28;2.92;;;26.80;42.40;;;;;;5061541;28;20469;-71
2023/06/09 07:29:46;;;;;;;5.80;3.35;;;26.70;42.70;;;;;;5055554;28;20037;-70
2023/06/09 07:32:13;;;;;;;5.00;3.85;;;26.70;43.00;;;;;;5068509;28;20057;-70
2023/06/09 07:34:39;;;;;;;4.93;3.35;;;26.80;43.00;;;;;;5066313;28;20129;-70
2023/06/09 07:37:07;;;;;;;5.28;2.95;;;26.70;43.10;;;;;;5065115;28;20039;-70
2023/06/09 07:39:36;;;;;;;5.00;3.72;;;26.70;42.70;;;;;;5055110;28;20032;-73
2023/06/09 07:42:02;;;;;;;4.68;3.75;;;26.60;43.00;;;;;;5056247;28;20028;-71
2023/06/09 07:44:29;;;;;;;13.18;3.40;;;26.70;43.20;;;;;;5047841;28;20059;-70
2023/06/09 07:46:55;;;;;;;10.13;3.85;;;26.70;42.60;;;;;;5052113;28;20036;-68
2023/06/09 07:49:21;;;;;;;4.20;3.80;;;26.80;42.60;;;;;;5061346;28;20116;-69
2023/06/09 07:51:49;;;;;;;3.90;3.40;;;26.70;42.70;;;;;;5063860;28;20028;-67
2023/06/09 07:54:16;;;;;;;4.50;3.20;;;26.90;42.20;;;;;;5071361;28;20052;-67
2023/06/09 07:56:42;;;;;;;6.78;4.28;;;26.70;42.80;;;;;;5057857;28;20048;-66
2023/06/09 07:59:08;;;;;;;10.23;3.67;;;26.80;43.00;;;;;;5062447;28;20060;-67
2023/06/09 08:01:34;;;;;;;7.00;3.95;;;26.80;43.20;;;;;;5059732;28;20067;-67
2023/06/09 08:04:02;;;;;;;5.15;3.78;;;26.80;42.20;;;;;;5063532;28;20051;-68
2023/06/09 08:06:29;;;;;;;5.45;3.72;;;26.90;43.30;;;;;;5063464;28;20123;-68
2023/06/09 08:08:55;;;;;;;6.55;3.55;;;26.80;43.50;;;;;;5060657;28;20455;-68
2023/06/09 08:11:21;;;;;;;6.65;3.97;;;26.80;43.60;;;;;;5064577;28;20033;-68
2023/06/09 08:13:47;;;;;;;6.50;3.70;;;26.90;43.50;;;;;;5049132;28;20044;-69
2023/06/09 08:16:13;;;;;;;5.85;3.55;;;26.90;43.50;;;;;;5057615;28;20486;-68
2023/06/09 08:18:39;;;;;;;7.00;3.40;;;26.80;43.50;;;;;;5058525;28;20032;-68
2023/06/09 08:21:05;;;;;;;5.57;4.20;;;26.90;43.50;;;;;;5053888;28;20056;-68
2023/06/09 08:23:32;;;;;;;6.78;4.53;;;26.90;43.50;;;;;;5048456;28;20094;-67
2023/06/09 08:25:58;;;;;;;6.68;4.47;;;26.80;43.20;;;;;;5046584;28;20086;-68
2023/06/09 08:28:24;;;;;;;10.32;4.40;;;26.90;43.50;;;;;;5070580;28;20468;-68
2023/06/09 08:30:50;;;;;;;7.43;4.85;;;26.90;43.60;;;;;;5045193;28;20025;-68
2023/06/09 08:33:16;;;;;;;8.93;4.65;;;26.80;43.50;;;;;;5054983;28;20478;-67
2023/06/09 08:35:42;;;;;;;10.43;5.07;;;26.80;43.80;;;;;;5070554;28;20120;-67
2023/06/09 08:38:08;;;;;;;9.60;5.30;;;26.90;43.80;;;;;;5069676;28;20115;-67
2023/06/09 08:40:35;;;;;;;5.97;5.05;;;26.90;44.00;;;;;;5052808;28;20037;-67
2023/06/09 08:43:05;;;;;;;4.68;2.90;;;26.90;44.10;;;;;;5050971;28;20045;-67
2023/06/09 08:45:34;;;;;;;6.45;4.03;;;26.80;44.30;;;;;;5048894;28;20479;-67
2023/06/09 08:48:01;;;;;;;8.98;4.57;;;26.80;44.30;;;;;;5050797;28;20603;-66
2023/06/09 08:50:31;;;;;;;5.07;4.00;;;26.80;44.60;;;;;;5050566;28;20111;-67
2023/06/09 08:52:57;;;;;;;10.90;4.53;;;26.80;44.40;;;;;;5050542;28;20037;-67
2023/06/09 08:55:24;;;;;;;7.03;4.75;;;26.70;44.40;;;;;;5050332;28;20052;-67
2023/06/09 08:57:50;;;;;;;8.98;5.30;;;26.60;44.50;;;;;;5050484;28;20071;-67
2023/06/09 09:00:17;;;;;;;10.32;5.85;;;26.80;44.60;;;;;;5050471;28;20109;-67
2023/06/09 09:02:43;;;;;;;5.05;3.38;;;26.80;44.40;;;;;;5050587;28;20040;-67
2023/06/09 09:05:10;;;;;;;12.10;4.50;;;26.80;44.60;;;;;;5050312;28;20322;-68
2023/06/09 09:07:36;;;;;;;12.75;8.05;;;26.80;44.60;;;;;;5050642;28;20059;-67
2023/06/09 09:10:02;;;;;;;6.53;3.75;;;26.70;44.60;;;;;;5050744;28;20067;-67
2023/06/09 09:12:52;;;;;;;6.20;4.68;;;26.80;44.70;;;;;;5050717;28;20029;-67
2023/06/09 09:15:18;;;;;;;4.53;3.63;;;26.80;44.80;;;;;;5049360;28;20032;-67
2023/06/09 09:17:46;;;;;;;5.82;3.45;;;26.80;44.70;;;;;;5050657;28;20037;-67
2023/06/09 09:20:14;;;;;;;5.82;3.97;;;26.70;44.60;;;;;;5051087;28;20059;-66
2023/06/09 09:22:44;;;;;;;4.97;3.20;;;26.80;44.90;;;;;;5050658;28;20422;-67
2023/06/09 09:25:20;;;;;;;8.68;4.03;;;26.70;44.90;;;;;;5049747;28;20110;-68
2023/06/09 09:28:08;;;;;;;9.38;4.35;;;26.80;44.90;;;;;;5069350;28;20113;-66
2023/06/09 09:30:53;;;;;;;7.35;3.13;;;26.70;44.50;;;;;;5029548;28;20040;-66
2023/06/09 09:33:29;;;;;;;10.50;4.35;;;26.70;44.60;;;;;;5033275;28;20858;-66
2023/06/09 09:35:57;;;;;;;7.38;3.30;;;26.70;45.10;;;;;;5045013;28;20132;-66
2023/06/09 09:38:25;;;;;;;4.70;2.25;;;26.70;45.10;;;;;;5029334;28;20060;-66
2023/06/09 09:40:53;;;;;;;7.53;3.03;;;26.70;45.10;;;;;;5031061;28;20037;-66
2023/06/09 09:43:20;;;;;;;6.82;3.40;;;26.90;45.20;;;;;;5030395;28;20041;-66
2023/06/09 09:45:49;;;;;;;7.20;3.55;;;26.70;45.20;;;;;;5030617;28;20120;-66
2023/06/09 09:48:18;;;;;;;5.28;3.28;;;26.70;45.20;;;;;;5034198;28;20113;-66
2023/06/09 09:50:47;;;;;;;3.60;2.45;;;26.60;45.30;;;;;;5034478;28;20358;-67
2023/06/09 09:53:15;;;;;;;5.07;3.33;;;26.60;45.30;;;;;;5034153;28;20069;-66
2023/06/09 09:55:43;;;;;;;8.05;3.83;;;26.70;45.30;;;;;;5050457;28;20116;-66
2023/06/09 09:58:10;;;;;;;4.68;2.95;;;26.70;45.20;;;;;;5054003;28;20029;-66
2023/06/09 10:00:40;;;;;;;5.78;3.53;;;26.60;44.80;;;;;;5054207;28;20052;-66
2023/06/09 10:03:10;;;;;;;4.72;3.40;;;26.70;45.40;;;;;;5053722;28;20099;-67
2023/06/09 10:05:39;;;;;;;7.03;3.72;;;26.70;45.20;;;;;;5059520;28;20155;-66
2023/06/09 10:08:06;;;;;;;5.43;3.78;;;26.60;45.60;;;;;;5062486;28;20080;-67
2023/06/09 10:10:33;;;;;;;5.20;3.15;;;26.70;48.20;;;;;;5041672;28;20196;-68
2023/06/09 10:13:00;;;;;;;7.45;4.75;;;26.90;48.00;;;;;;5041178;28;20437;-67
2023/06/09 10:15:26;;;;;;;8.88;4.82;;;27.10;49.70;;;;;;5032035;28;20194;-67
2023/06/09 10:17:54;;;;;;;16.08;4.72;;;27.00;47.50;;;;;;5040705;28;20591;-69
2023/06/09 10:20:21;;;;;;;6.50;4.65;;;27.00;46.30;;;;;;5045707;28;20106;-68
2023/06/09 10:22:47;;;;;;;6.18;3.97;;;27.10;44.80;;;;;;5045324;28;20056;-65
2023/06/09 10:25:14;;;;;;;6.22;3.80;;;27.20;44.60;;;;;;5050543;28;20047;-66
2023/06/09 10:27:40;;;;;;;4.40;3.90;;;27.20;44.60;;;;;;5048319;28;20505;-67
2023/06/09 10:30:07;;;;;;;8.20;4.15;;;27.00;45.50;;;;;;5039721;28;20052;-68
2023/06/09 10:32:37;;;;;;;7.45;3.58;;;27.20;44.00;;;;;;5029645;28;20456;-66
2023/06/09 10:35:06;;;;;;;7.18;3.65;;;27.20;43.50;;;;;;5032009;28;20045;-68
2023/06/09 10:37:34;;;;;;;4.15;3.40;;;27.20;45.00;;;;;;5050610;28;20036;-66
2023/06/09 10:40:10;;;;;;;4.03;3.53;;;27.30;42.50;;;;;;5038940;28;20033;-69
2023/06/09 10:43:10;;;;;;;7.25;3.28;;;27.40;42.10;;;;;;5043216;28;20053;-66
2023/06/09 10:45:54;;;;;;;5.13;3.95;;;27.30;46.20;;;;;;5061912;28;20111;-65
2023/06/09 10:48:51;;;;;;;5.97;3.10;;;27.60;51.60;;;;;;5033386;28;20041;-67
2023/06/09 10:51:26;;;;;;;6.50;3.17;;;27.80;45.70;;;;;;5069715;28;20430;-67
2023/06/09 10:54:25;;;;;;;5.28;4.30;;;27.80;42.40;;;;;;5032930;28;20140;-67
2023/06/09 10:57:00;;;;;;;5.35;3.63;;;27.80;43.00;;;;;;5000777;28;20038;-66
2023/06/09 10:59:26;;;;;;;5.50;4.10;;;27.70;42.10;;;;;;4992511;28;20045;-68
2023/06/09 11:02:05;;;;;;;5.85;3.83;;;27.70;41.90;;;;;;4996446;28;20042;-68
2023/06/09 11:04:45;;;;;;;4.40;3.22;;;27.70;46.20;;;;;;5006321;28;20617;-68
2023/06/09 11:07:27;;;;;;;5.57;3.70;;;27.70;46.30;;;;;;4990634;28;20149;-69
2023/06/09 11:09:56;;;;;;;6.68;4.03;;;27.50;46.10;;;;;;5006133;28;20105;-68
2023/06/09 11:12:36;;;;;;;6.45;4.18;;;27.60;46.10;;;;;;5008448;28;20404;-69
2023/06/09 11:15:03;;;;;;;6.25;3.28;;;27.60;46.60;;;;;;5006386;28;20041;-68
2023/06/09 11:17:37;;;;;;;4.07;3.00;;;27.50;46.60;;;;;;5009864;28;20046;-68
2023/06/09 11:20:09;;;;;;;3.28;2.97;;;27.50;47.00;;;;;;4998832;28;20109;-68
2023/06/09 11:23:01;;;;;;;5.70;3.67;;;27.40;47.60;;;;;;5004893;28;20038;-68
2023/06/09 11:25:28;;;;;;;4.37;3.33;;;27.50;44.50;;;;;;4990203;28;20565;-69
2023/06/09 11:27:59;;;;;;;4.38;2.60;;;27.50;47.70;;;;;;4990348;28;20288;-68
2023/06/09 11:30:33;;;;;;;5.22;3.03;;;27.40;47.70;;;;;;4994489;28;20033;-68
2023/06/09 11:33:01;;;;;;;7.55;3.08;;;27.40;47.70;;;;;;5016588;28;20089;-68
2023/06/09 11:35:40;;;;;;;3.83;3.13;;;27.40;48.00;;;;;;5053416;28;20055;-68
2023/06/09 11:38:10;;;;;;;8.75;3.00;;;27.30;48.30;;;;;;5062389;28;20037;-67
2023/06/09 11:40:38;;;;;;;5.57;3.25;;;27.40;48.40;;;;;;5064148;28;20055;-68
2023/06/09 11:43:08;;;;;;;5.55;2.92;;;27.40;48.00;;;;;;5045059;28;20441;-68
2023/06/09 11:45:36;;;;;;;9.52;3.28;;;27.30;48.40;;;;;;5057991;28;20089;-68
2023/06/09 11:48:05;;;;;;;7.00;3.58;;;27.30;48.60;;;;;;5062189;28;20060;-67
2023/06/09 11:50:40;;;;;;;4.60;3.42;;;27.30;47.50;;;;;;5058395;28;20036;-68
2023/06/09 11:53:10;;;;;;;3.20;2.50;;;27.20;48.40;;;;;;5057222;28;20082;-69
2023/06/09 11:55:36;;;;;;;5.35;2.85;;;27.30;48.40;;;;;;5043794;28;20044;-67
2023/06/09 11:58:04;;;;;;;4.97;2.97;;;27.10;48.40;;;;;;5059433;28;20043;-67
2023/06/09 12:00:32;;;;;;;5.82;3.65;;;27.20;47.90;;;;;;5061569;28;20175;-67
2023/06/09 12:02:59;;;;;;;5.93;3.35;;;27.10;48.00;;;;;;5064904;28;20032;-67
2023/06/09 12:05:26;;;;;;;4.97;3.22;;;27.10;47.70;;;;;;5058654;28;20051;-67
2023/06/09 12:07:53;;;;;;;4.97;3.00;;;27.10;48.40;;;;;;5051473;28;20168;-68
2023/06/09 12:10:22;;;;;;;9.48;4.00;;;27.20;48.30;;;;;;5060367;28;20043;-68
2023/06/09 12:12:50;;;;;;;3.58;2.60;;;27.10;48.20;;;;;;5070131;28;20086;-68
2023/06/09 12:15:19;;;;;;;4.50;3.47;;;27.00;48.00;;;;;;5053582;28;20029;-68
2023/06/09 12:17:50;;;;;;;7.03;3.65;;;27.00;48.00;;;;;;5057732;28;20043;-67
2023/06/09 12:20:28;;;;;;;3.13;2.83;;;27.00;47.60;;;;;;5063497;28;20063;-68
2023/06/09 12:23:27;;;;;;;4.78;2.75;;;27.00;48.00;;;;;;5053842;28;20058;-67
2023/06/09 12:25:53;;;;;;;3.58;3.17;;;27.00;48.10;;;;;;5019281;28;20849;-68
2023/06/09 12:28:31;;;;;;;8.18;3.42;;;27.10;47.60;;;;;;5006479;28;20056;-68
2023/06/09 12:31:08;;;;;;;6.95;3.45;;;27.00;47.80;;;;;;4993529;28;20831;-67
2023/06/09 12:33:35;;;;;;;3.88;3.03;;;27.00;48.10;;;;;;5004341;28;20054;-66
2023/06/09 12:36:06;;;;;;;6.07;3.15;;;27.10;47.80;;;;;;4993185;28;20129;-66
2023/06/09 12:38:40;;;;;;;3.88;2.85;;;27.00;48.30;;;;;;4992924;28;20129;-67
2023/06/09 12:41:14;;;;;;;4.45;3.10;;;27.00;48.30;;;;;;4997311;28;20034;-66
2023/06/09 12:43:59;;;;;;;3.20;2.90;;;27.10;48.20;;;;;;4994945;28;20065;-67
2023/06/09 12:46:36;;;;;;;5.43;2.80;;;27.00;48.20;;;;;;4989368;28;20046;-66
2023/06/09 12:49:04;;;;;;;4.32;2.65;;;27.10;48.30;;;;;;4994414;28;20050;-66
2023/06/09 12:51:31;;;;;;;5.00;2.40;;;27.20;48.30;;;;;;4971932;28;20038;-67
2023/06/09 12:53:58;;;;;;;4.07;2.67;;;27.00;48.30;;;;;;5001781;28;20070;-66
2023/06/09 12:56:27;;;;;;;3.90;2.90;;;27.10;47.80;;;;;;5008738;28;20086;-66